Time;durP1;ratioP1;P1;durP2;ratioP2;P2;SDS_P1;SDS_P2;PMS_P1;PMS_P2;Temp;Humidity;BMP_temperature;BMP_pressure;BME280_temperature;BME280_humidity;BME280_pressure;Samples;Min_cycle;Max_cycle;Signal;HPM_P1;HPM_P2
2023/12/16 00:01:10;;;;;;;14.57;5.57;;;9.40;98.70;;;;;;10368443;28;20217;-65
2023/12/16 00:06:14;;;;;;;14.00;6.00;;;9.40;98.80;;;;;;10369037;28;20758;-66
2023/12/16 00:11:18;;;;;;;17.00;6.17;;;9.30;98.60;;;;;;10368479;28;20279;-65
2023/12/16 00:16:23;;;;;;;13.87;5.97;;;9.40;98.60;;;;;;10368282;28;20205;-66
2023/12/16 00:21:27;;;;;;;17.30;6.70;;;9.30;98.70;;;;;;10367688;28;20217;-66
2023/12/16 00:26:31;;;;;;;13.03;6.73;;;9.30;98.60;;;;;;10368347;28;20700;-67
2023/12/16 00:31:36;;;;;;;15.77;7.13;;;9.30;99.30;;;;;;10367907;28;20225;-66
2023/12/16 00:36:41;;;;;;;14.00;6.50;;;9.30;98.90;;;;;;10368157;28;20205;-65
2023/12/16 00:41:44;;;;;;;12.03;6.70;;;9.30;99.10;;;;;;10366930;28;20220;-66
2023/12/16 00:46:49;;;;;;;12.00;6.20;;;9.30;99.50;;;;;;10367107;28;20196;-65
2023/12/16 00:51:53;;;;;;;14.67;7.10;;;9.30;99.40;;;;;;10366693;28;20275;-66
2023/12/16 00:56:57;;;;;;;17.30;7.03;;;9.30;99.00;;;;;;10367235;28;20200;-66
2023/12/16 01:02:02;;;;;;;13.23;6.30;;;9.30;99.00;;;;;;10365824;28;20224;-64
2023/12/16 01:07:06;;;;;;;18.73;6.67;;;9.30;98.90;;;;;;10367296;28;20208;-61
2023/12/16 01:12:09;;;;;;;14.60;6.30;;;9.30;98.80;;;;;;10358329;28;20221;-61
2023/12/16 01:17:14;;;;;;;16.43;6.47;;;9.20;98.50;;;;;;10367506;28;20628;-61
2023/12/16 01:22:19;;;;;;;19.10;7.63;;;9.30;98.70;;;;;;10362506;28;20221;-61
2023/12/16 01:27:23;;;;;;;16.30;6.47;;;9.30;98.60;;;;;;10367742;28;20205;-61
2023/12/16 01:32:28;;;;;;;12.43;6.10;;;9.30;98.40;;;;;;10367132;28;20228;-61
2023/12/16 01:37:31;;;;;;;12.40;6.60;;;9.30;98.90;;;;;;10368306;28;20205;-62
2023/12/16 01:42:35;;;;;;;13.00;6.17;;;9.30;98.80;;;;;;10365754;28;20221;-61
2023/12/16 01:47:40;;;;;;;15.47;6.10;;;9.30;99.40;;;;;;10366910;28;20652;-61
2023/12/16 01:52:45;;;;;;;12.87;6.13;;;9.30;99.20;;;;;;10367499;28;20213;-62
2023/12/16 01:57:49;;;;;;;14.87;6.30;;;9.30;99.60;;;;;;10367685;28;20252;-61
2023/12/16 02:02:54;;;;;;;13.63;6.17;;;9.30;98.50;;;;;;10367433;28;20746;-62
2023/12/16 02:07:57;;;;;;;16.80;7.28;;;9.30;98.80;;;;;;10366867;28;20263;-62
2023/12/16 02:13:02;;;;;;;16.70;6.80;;;9.30;98.40;;;;;;10370441;28;20213;-63
2023/12/16 02:18:08;;;;;;;16.13;7.10;;;9.30;98.60;;;;;;10374264;28;20343;-62
2023/12/16 02:23:15;;;;;;;15.30;6.43;;;9.30;98.80;;;;;;10373463;28;20279;-63
2023/12/16 02:28:19;;;;;;;14.10;6.00;;;9.30;98.50;;;;;;10365543;28;20217;-62
2023/12/16 02:33:23;;;;;;;13.20;5.37;;;9.30;98.60;;;;;;10355061;28;20249;-63
2023/12/16 02:38:28;;;;;;;16.63;5.53;;;9.30;98.60;;;;;;10373439;28;20275;-63
2023/12/16 02:43:32;;;;;;;17.97;5.93;;;9.30;98.20;;;;;;10372416;28;20279;-63
2023/12/16 02:48:35;;;;;;;13.10;5.40;;;9.30;98.00;;;;;;10373549;28;20259;-63
2023/12/16 02:53:40;;;;;;;14.73;5.50;;;9.30;98.30;;;;;;10372297;28;20221;-62
2023/12/16 02:58:44;;;;;;;14.60;5.13;;;9.30;97.70;;;;;;10372314;28;20253;-62
2023/12/16 03:03:47;;;;;;;13.77;5.20;;;9.30;97.60;;;;;;10371690;28;20217;-63
2023/12/16 03:08:52;;;;;;;12.10;4.60;;;9.20;97.50;;;;;;10372018;28;20205;-63
2023/12/16 03:13:56;;;;;;;11.47;4.70;;;9.20;97.50;;;;;;10364735;28;20284;-63
2023/12/16 03:19:00;;;;;;;13.60;4.70;;;9.20;97.70;;;;;;10369757;28;20205;-63
2023/12/16 03:24:06;;;;;;;9.67;4.00;;;9.20;97.60;;;;;;10370219;28;20771;-62
2023/12/16 03:29:09;;;;;;;15.13;4.67;;;9.20;97.10;;;;;;10367880;28;20628;-63
2023/12/16 03:34:13;;;;;;;10.20;4.50;;;9.20;97.10;;;;;;10370946;28;20229;-63
2023/12/16 03:39:18;;;;;;;14.37;4.27;;;9.30;96.90;;;;;;10371832;28;20201;-62
2023/12/16 03:44:22;;;;;;;10.43;3.53;;;9.20;96.70;;;;;;10361498;28;20617;-62
2023/12/16 03:49:25;;;;;;;12.00;3.73;;;9.20;96.50;;;;;;10371065;28;20547;-63
2023/12/16 03:54:31;;;;;;;8.83;3.53;;;9.20;96.80;;;;;;10370564;28;20294;-63
2023/12/16 03:59:34;;;;;;;10.87;3.47;;;9.20;97.20;;;;;;10363882;28;20206;-63
2023/12/16 04:04:38;;;;;;;10.03;3.70;;;9.30;96.30;;;;;;10365156;28;20224;-63
2023/12/16 04:09:44;;;;;;;12.57;3.70;;;9.30;96.80;;;;;;10370354;28;20247;-63
2023/12/16 04:14:48;;;;;;;14.43;3.70;;;9.30;96.40;;;;;;10342831;28;20229;-62
2023/12/16 04:19:52;;;;;;;12.07;3.10;;;9.20;96.60;;;;;;10369505;28;20204;-63
2023/12/16 04:24:59;;;;;;;9.80;3.43;;;9.30;95.70;;;;;;10370203;28;20220;-67
2023/12/16 04:30:03;;;;;;;12.33;3.20;;;9.30;96.70;;;;;;10330009;28;20204;-66
2023/12/16 04:35:08;;;;;;;11.73;3.13;;;9.30;96.10;;;;;;10367526;28;20243;-67
2023/12/16 04:40:13;;;;;;;8.67;3.37;;;9.20;95.90;;;;;;10367790;28;20250;-68
2023/12/16 04:45:17;;;;;;;10.53;3.27;;;9.30;96.00;;;;;;10367805;28;20534;-67
2023/12/16 04:50:20;;;;;;;12.10;3.20;;;9.20;95.60;;;;;;10361915;28;20204;-68
2023/12/16 04:55:25;;;;;;;11.27;3.43;;;9.20;96.00;;;;;;10367485;28;20640;-67
2023/12/16 05:00:29;;;;;;;13.30;3.63;;;9.20;96.10;;;;;;10367528;28;20200;-68
2023/12/16 05:05:33;;;;;;;8.90;3.00;;;9.20;96.20;;;;;;10367450;28;20224;-67
2023/12/16 05:10:38;;;;;;;9.77;3.03;;;9.20;96.20;;;;;;10366371;28;20196;-68
2023/12/16 05:15:41;;;;;;;10.27;3.70;;;9.20;95.70;;;;;;10367473;28;20212;-67
2023/12/16 05:20:45;;;;;;;11.90;3.73;;;9.20;95.50;;;;;;10366620;28;20225;-67
2023/12/16 05:25:50;;;;;;;12.00;3.80;;;9.20;95.30;;;;;;10365163;28;20229;-66
2023/12/16 05:30:54;;;;;;;13.03;3.87;;;9.20;95.30;;;;;;10366732;28;20236;-66
2023/12/16 05:35:59;;;;;;;10.00;3.40;;;9.20;95.10;;;;;;10366998;28;20706;-67
2023/12/16 05:41:05;;;;;;;8.43;3.43;;;9.20;95.30;;;;;;10366263;28;20212;-65
2023/12/16 05:46:08;;;;;;;10.43;3.93;;;9.20;94.50;;;;;;10366982;28;20224;-68
2023/12/16 05:51:12;;;;;;;10.73;3.80;;;9.10;94.40;;;;;;10367060;28;20247;-65
2023/12/16 05:56:17;;;;;;;9.63;3.70;;;9.10;94.80;;;;;;10368079;28;20730;-66
2023/12/16 06:01:20;;;;;;;9.90;3.53;;;9.10;95.20;;;;;;10360812;28;20230;-67
2023/12/16 06:06:24;;;;;;;13.17;3.80;;;9.10;94.50;;;;;;10372701;28;20700;-66
2023/12/16 06:11:29;;;;;;;9.03;3.67;;;9.10;94.70;;;;;;10370725;28;20233;-68
2023/12/16 06:16:34;;;;;;;13.87;5.67;;;9.10;94.90;;;;;;10371267;28;20197;-67
2023/12/16 06:21:38;;;;;;;16.67;8.27;;;9.10;94.50;;;;;;10369081;28;20221;-66
2023/12/16 06:26:43;;;;;;;16.47;7.37;;;9.10;95.70;;;;;;10371375;28;20263;-66
2023/12/16 06:31:47;;;;;;;12.33;4.83;;;9.10;95.30;;;;;;10372394;28;20244;-67
2023/12/16 06:36:50;;;;;;;13.70;6.37;;;9.10;95.10;;;;;;10336382;28;20740;-65
2023/12/16 06:41:55;;;;;;;16.07;7.10;;;9.10;94.70;;;;;;10319694;28;20532;-65
2023/12/16 06:46:59;;;;;;;12.40;4.10;;;9.20;94.00;;;;;;10319729;28;20321;-67
2023/12/16 06:52:03;;;;;;;12.70;4.80;;;9.20;94.20;;;;;;10304655;28;20233;-66
2023/12/16 06:57:08;;;;;;;13.03;4.57;;;9.20;94.50;;;;;;10299036;28;20256;-65
2023/12/16 07:02:11;;;;;;;11.13;3.50;;;9.20;93.70;;;;;;10284763;28;20233;-67
2023/12/16 07:07:15;;;;;;;10.00;4.53;;;9.10;94.00;;;;;;10292598;28;20251;-66
2023/12/16 07:12:20;;;;;;;8.20;3.83;;;9.20;95.40;;;;;;10268286;28;21828;-67
2023/12/16 07:17:24;;;;;;;18.67;6.13;;;9.20;94.80;;;;;;10269267;28;20225;-66
2023/12/16 07:22:36;;;;;;;13.63;3.70;;;9.20;94.20;;;;;;10034472;28;21762;-66
2023/12/16 07:27:41;;;;;;;11.40;4.07;;;9.20;94.30;;;;;;10233993;28;20720;-66
2023/12/16 07:32:44;;;;;;;17.83;4.13;;;9.20;94.40;;;;;;10231561;28;20303;-66
2023/12/16 07:37:48;;;;;;;13.65;4.63;;;9.20;93.70;;;;;;10233494;28;20209;-66
2023/12/16 07:42:53;;;;;;;17.93;4.13;;;9.10;94.60;;;;;;10223935;28;20320;-67
2023/12/16 07:47:57;;;;;;;14.88;4.35;;;9.10;94.50;;;;;;10225854;28;21682;-65
2023/12/16 07:53:02;;;;;;;13.93;3.80;;;9.10;94.40;;;;;;10227850;28;21675;-64
2023/12/16 07:58:07;;;;;;;13.65;5.72;;;9.10;94.10;;;;;;10223163;28;20444;-66
2023/12/16 08:03:11;;;;;;;13.57;4.40;;;9.20;93.30;;;;;;10224880;28;21361;-64
2023/12/16 08:08:15;;;;;;;13.10;4.85;;;9.20;94.10;;;;;;10226680;28;20237;-63
2023/12/16 08:13:20;;;;;;;12.13;5.40;;;9.20;94.10;;;;;;10221429;28;20771;-64
2023/12/16 08:18:23;;;;;;;9.70;3.90;;;9.20;94.40;;;;;;10225542;28;20240;-65
2023/12/16 08:23:27;;;;;;;11.57;4.17;;;9.10;94.20;;;;;;10226540;28;20262;-65
2023/12/16 08:28:32;;;;;;;13.93;4.43;;;9.10;94.10;;;;;;10229006;28;20300;-65
2023/12/16 08:33:36;;;;;;;19.77;16.00;;;9.10;94.60;;;;;;10230002;28;20230;-64
2023/12/16 08:38:40;;;;;;;17.73;11.43;;;9.10;93.90;;;;;;10228988;28;20214;-64
2023/12/16 08:43:45;;;;;;;10.60;4.60;;;9.10;94.00;;;;;;10193052;28;20237;-64
2023/12/16 08:48:48;;;;;;;12.83;4.20;;;9.10;94.70;;;;;;10225698;28;20210;-64
2023/12/16 08:53:53;;;;;;;14.23;3.87;;;9.10;94.80;;;;;;10241667;28;21077;-60
2023/12/16 08:58:58;;;;;;;9.87;3.53;;;9.10;94.40;;;;;;10241925;28;20210;-64
2023/12/16 09:04:01;;;;;;;10.90;3.97;;;9.20;94.60;;;;;;10223639;28;20225;-65
2023/12/16 09:09:05;;;;;;;13.80;3.70;;;9.20;93.80;;;;;;10227854;28;20240;-66
2023/12/16 09:14:13;;;;;;;10.20;3.83;;;9.20;94.30;;;;;;10223210;28;20233;-65
2023/12/16 09:19:17;;;;;;;11.40;4.00;;;9.30;94.40;;;;;;10227193;28;20210;-65
2023/12/16 09:24:20;;;;;;;15.10;4.23;;;9.40;94.00;;;;;;10228282;28;20234;-65
2023/12/16 09:29:26;;;;;;;9.67;3.87;;;9.40;94.40;;;;;;10231268;28;20218;-66
2023/12/16 09:34:31;;;;;;;12.48;3.80;;;9.40;94.30;;;;;;10229268;28;20276;-65
2023/12/16 09:39:35;;;;;;;11.40;4.03;;;9.50;94.90;;;;;;10232299;28;20281;-66
2023/12/16 09:44:42;;;;;;;17.60;3.97;;;9.50;94.10;;;;;;10228902;28;20234;-65
2023/12/16 09:49:49;;;;;;;14.40;3.60;;;9.60;94.00;;;;;;10232470;28;20233;-67
2023/12/16 09:54:54;;;;;;;14.60;3.20;;;9.70;94.20;;;;;;10233907;28;20226;-65
2023/12/16 09:59:59;;;;;;;12.73;3.67;;;9.80;94.40;;;;;;10239827;28;21017;-66
2023/12/16 10:05:05;;;;;;;13.47;3.33;;;9.90;94.30;;;;;;10226423;28;20368;-67
2023/12/16 10:10:09;;;;;;;10.87;3.60;;;10.00;93.30;;;;;;10239980;28;20230;-66
2023/12/16 10:15:29;;;;;;;9.50;3.83;;;10.00;93.30;;;;;;10112578;28;20752;-67
2023/12/16 10:20:33;;;;;;;15.00;3.87;;;10.10;92.70;;;;;;10227992;28;20444;-68
2023/12/16 10:25:37;;;;;;;13.13;3.20;;;10.10;92.80;;;;;;10099126;28;20988;-66
2023/12/16 10:30:43;;;;;;;16.50;4.30;;;10.20;92.80;;;;;;10223623;28;20444;-68
2023/12/16 10:35:48;;;;;;;14.83;3.43;;;10.50;91.80;;;;;;10227997;28;20311;-65
2023/12/16 10:40:53;;;;;;;9.40;3.10;;;10.60;92.10;;;;;;10229162;28;20293;-63
2023/12/16 10:46:03;;;;;;;14.15;3.33;;;10.50;92.00;;;;;;10197530;28;20303;-65
2023/12/16 10:51:08;;;;;;;16.45;3.30;;;10.50;92.30;;;;;;10227482;28;20280;-65
2023/12/16 10:56:17;;;;;;;10.90;3.30;;;10.50;92.50;;;;;;10227898;28;20206;-65
2023/12/16 11:01:23;;;;;;;17.10;3.50;;;10.40;92.40;;;;;;10226234;28;20226;-65
2023/12/16 11:06:34;;;;;;;13.73;3.35;;;10.50;93.10;;;;;;10100084;28;20288;-65
2023/12/16 11:11:38;;;;;;;13.55;3.65;;;10.50;92.60;;;;;;10225257;28;20225;-65
2023/12/16 11:16:55;;;;;;;15.13;3.45;;;10.40;93.00;;;;;;10234294;28;21644;-65
2023/12/16 11:21:59;;;;;;;10.65;3.28;;;10.40;93.20;;;;;;10223818;28;20226;-70
2023/12/16 11:27:03;;;;;;;11.10;2.83;;;10.40;92.90;;;;;;10222764;28;20230;-65
2023/12/16 11:32:10;;;;;;;16.95;3.50;;;10.40;92.80;;;;;;10228053;28;20297;-65
2023/12/16 11:37:14;;;;;;;12.90;3.30;;;10.40;92.90;;;;;;10235244;28;20218;-65
2023/12/16 11:42:51;;;;;;;15.43;3.87;;;10.50;93.10;;;;;;10229363;28;20233;-65
2023/12/16 11:47:56;;;;;;;13.00;3.95;;;10.40;92.90;;;;;;10225853;28;20226;-64
2023/12/16 11:53:00;;;;;;;11.77;3.50;;;10.40;93.00;;;;;;10232109;28;20226;-64
2023/12/16 11:58:04;;;;;;;10.13;3.25;;;10.40;93.20;;;;;;10227494;28;20206;-65
2023/12/16 12:03:09;;;;;;;11.95;3.53;;;10.40;93.20;;;;;;10226321;28;20773;-64
2023/12/16 12:08:13;;;;;;;11.23;3.90;;;10.50;93.30;;;;;;10229365;28;20233;-66
2023/12/16 12:13:17;;;;;;;14.50;3.92;;;10.50;93.10;;;;;;10226451;28;21776;-67
2023/12/16 12:18:22;;;;;;;14.45;3.70;;;10.50;93.40;;;;;;10225174;28;20207;-67
2023/12/16 12:23:26;;;;;;;11.77;3.78;;;10.60;92.70;;;;;;10227947;28;20250;-66
2023/12/16 12:28:29;;;;;;;13.02;4.68;;;10.50;92.40;;;;;;10217140;28;20231;-66
2023/12/16 12:33:35;;;;;;;16.08;3.90;;;10.50;92.80;;;;;;10220905;28;20230;-65
2023/12/16 12:38:39;;;;;;;11.50;3.60;;;10.60;92.90;;;;;;10233976;28;20277;-63
2023/12/16 12:43:43;;;;;;;14.40;3.90;;;10.50;92.50;;;;;;10247929;28;20234;-66
2023/12/16 12:48:55;;;;;;;19.52;4.53;;;10.50;92.50;;;;;;10230946;28;20698;-65
2023/12/16 12:54:00;;;;;;;14.90;3.57;;;10.50;92.90;;;;;;10231074;28;20234;-68
2023/12/16 12:59:05;;;;;;;16.30;4.70;;;10.50;93.40;;;;;;10225136;28;20210;-69
2023/12/16 13:04:30;;;;;;;13.60;4.27;;;10.50;93.40;;;;;;10229516;28;20230;-69
2023/12/16 13:09:34;;;;;;;16.80;4.28;;;10.50;93.40;;;;;;10230387;28;20296;-69
2023/12/16 13:14:41;;;;;;;14.88;4.00;;;10.50;93.30;;;;;;10227317;28;20226;-64
2023/12/16 13:19:46;;;;;;;11.88;4.15;;;10.50;93.40;;;;;;10228818;28;21756;-64
2023/12/16 13:24:50;;;;;;;16.00;4.07;;;10.50;93.30;;;;;;10231352;28;20229;-64
2023/12/16 13:29:55;;;;;;;13.95;4.50;;;10.50;93.40;;;;;;10226783;28;20298;-65
2023/12/16 13:35:00;;;;;;;14.82;4.88;;;10.50;93.70;;;;;;10228772;28;20284;-65
2023/12/16 13:40:06;;;;;;;15.40;5.67;;;10.50;93.90;;;;;;10234004;28;20284;-66
2023/12/16 13:45:10;;;;;;;14.18;4.60;;;10.40;94.10;;;;;;10228146;28;20229;-66
2023/12/16 13:50:16;;;;;;;15.03;4.90;;;10.40;94.20;;;;;;10225273;28;20238;-65
2023/12/16 13:55:19;;;;;;;17.20;5.00;;;10.40;94.40;;;;;;10228852;28;20241;-64
2023/12/16 14:00:23;;;;;;;16.67;5.13;;;10.40;94.40;;;;;;10228779;28;20855;-64
2023/12/16 14:05:28;;;;;;;21.43;6.00;;;10.40;94.60;;;;;;10228242;28;20726;-65
2023/12/16 14:10:32;;;;;;;22.00;5.97;;;10.40;94.60;;;;;;10228941;28;21571;-65
2023/12/16 14:15:36;;;;;;;16.83;5.53;;;10.40;94.60;;;;;;10229608;28;21588;-65
2023/12/16 14:20:41;;;;;;;20.53;6.40;;;10.40;94.80;;;;;;10232174;28;20210;-65
2023/12/16 14:25:44;;;;;;;20.67;6.37;;;10.40;94.90;;;;;;10232796;28;20242;-64
2023/12/16 14:30:48;;;;;;;14.93;5.60;;;10.40;95.50;;;;;;10237323;28;20225;-64
2023/12/16 14:35:53;;;;;;;17.60;6.23;;;10.30;95.30;;;;;;10238610;28;20228;-65
2023/12/16 14:40:57;;;;;;;18.20;6.03;;;10.30;95.40;;;;;;10238690;28;20209;-65
2023/12/16 14:46:00;;;;;;;15.57;6.27;;;10.30;95.70;;;;;;10234571;28;20264;-66
2023/12/16 14:51:06;;;;;;;16.60;5.77;;;10.30;96.00;;;;;;10237646;28;20211;-66
2023/12/16 14:56:09;;;;;;;14.13;7.10;;;10.30;95.90;;;;;;10232651;28;20207;-66
2023/12/16 15:01:20;;;;;;;20.80;6.50;;;10.30;95.90;;;;;;10236439;28;20273;-66
2023/12/16 15:06:25;;;;;;;15.43;6.80;;;10.20;96.20;;;;;;10232985;28;20238;-65
2023/12/16 15:11:35;;;;;;;16.97;6.77;;;10.20;96.20;;;;;;10234336;28;20237;-67
2023/12/16 15:16:39;;;;;;;16.47;6.80;;;10.20;96.50;;;;;;10236086;28;20210;-65
2023/12/16 15:21:44;;;;;;;19.57;6.60;;;10.20;96.70;;;;;;10233781;28;20241;-65
2023/12/16 15:26:47;;;;;;;17.92;6.60;;;10.20;96.80;;;;;;10234694;28;20229;-64
2023/12/16 15:31:54;;;;;;;14.90;6.25;;;10.20;96.90;;;;;;10231226;28;20242;-66
2023/12/16 15:37:00;;;;;;;14.18;6.10;;;10.20;97.00;;;;;;10203541;28;20232;-63
2023/12/16 15:42:15;;;;;;;17.48;7.50;;;10.20;97.30;;;;;;10235895;28;20249;-64
2023/12/16 15:47:21;;;;;;;14.93;6.20;;;10.20;97.40;;;;;;10234065;28;20230;-64
2023/12/16 15:52:30;;;;;;;16.60;6.43;;;10.20;97.90;;;;;;10233271;28;21510;-65
2023/12/16 15:57:34;;;;;;;11.60;6.33;;;10.10;98.00;;;;;;10232830;28;20249;-67
2023/12/16 16:02:38;;;;;;;11.00;6.00;;;10.10;98.20;;;;;;10233116;28;20225;-65
2023/12/16 16:07:45;;;;;;;14.13;6.10;;;10.10;98.50;;;;;;10232646;28;20320;-66
2023/12/16 16:12:49;;;;;;;12.37;6.13;;;10.10;98.50;;;;;;10230743;28;20308;-65
2023/12/16 16:17:52;;;;;;;14.97;6.70;;;10.10;98.80;;;;;;10230355;28;20246;-64
2023/12/16 16:22:57;;;;;;;15.23;6.53;;;10.10;98.90;;;;;;10232266;28;20229;-64
2023/12/16 16:28:04;;;;;;;22.40;7.25;;;10.10;98.90;;;;;;10243254;28;20706;-65
2023/12/16 16:33:09;;;;;;;16.98;8.30;;;10.10;99.20;;;;;;10224687;28;21973;-66
2023/12/16 16:38:14;;;;;;;11.80;6.70;;;10.30;99.90;;;;;;10251217;28;20300;-65
2023/12/16 16:43:17;;;;;;;14.00;7.00;;;10.40;99.60;;;;;;10230712;28;20260;-65
2023/12/16 16:48:21;;;;;;;12.68;7.03;;;10.30;99.50;;;;;;10232782;28;20233;-64
2023/12/16 16:53:26;;;;;;;14.60;8.10;;;10.30;99.60;;;;;;10223783;28;20237;-65
2023/12/16 16:58:30;;;;;;;16.05;7.35;;;10.30;99.70;;;;;;10230187;28;20293;-66
2023/12/16 17:03:35;;;;;;;18.13;8.20;;;10.20;99.90;;;;;;10232695;28;20229;-65
2023/12/16 17:08:41;;;;;;;14.37;8.77;;;10.20;99.90;;;;;;10229471;28;21852;-67
2023/12/16 17:13:44;;;;;;;14.48;7.68;;;10.20;99.90;;;;;;10228807;28;20264;-65
2023/12/16 17:18:48;;;;;;;14.77;8.93;;;10.10;99.90;;;;;;10231898;28;20207;-64
2023/12/16 17:23:53;;;;;;;19.63;12.47;;;10.10;99.90;;;;;;10225586;28;20234;-64
2023/12/16 17:28:57;;;;;;;26.70;18.87;;;10.10;99.90;;;;;;10229152;28;20253;-64
2023/12/16 17:34:01;;;;;;;19.60;12.97;;;10.10;99.90;;;;;;10227766;28;20300;-65
2023/12/16 17:39:06;;;;;;;18.67;11.60;;;10.10;99.90;;;;;;10228616;28;20206;-65
2023/12/16 17:44:11;;;;;;;16.30;10.47;;;10.20;99.90;;;;;;10229286;28;20229;-64
2023/12/16 17:49:14;;;;;;;16.05;10.40;;;10.20;99.90;;;;;;10235629;28;21583;-66
2023/12/16 17:54:19;;;;;;;22.70;13.95;;;10.20;99.90;;;;;;10235079;28;20234;-66
2023/12/16 17:59:23;;;;;;;23.33;13.50;;;10.10;99.90;;;;;;10235258;28;20202;-66
2023/12/16 18:04:27;;;;;;;20.37;12.83;;;10.10;99.90;;;;;;10239503;28;20230;-64
2023/12/16 18:09:32;;;;;;;17.35;12.15;;;10.10;99.90;;;;;;10235339;28;20235;-65
2023/12/16 18:14:36;;;;;;;17.23;11.70;;;10.10;99.90;;;;;;10232235;28;20728;-65
2023/12/16 18:19:40;;;;;;;24.37;13.93;;;10.10;99.90;;;;;;10232273;28;20206;-66
2023/12/16 18:24:45;;;;;;;18.63;13.00;;;10.10;99.90;;;;;;10230638;28;20289;-65
2023/12/16 18:29:48;;;;;;;18.23;11.87;;;10.10;99.90;;;;;;10233357;28;20230;-67
2023/12/16 18:34:52;;;;;;;21.13;13.25;;;10.10;99.90;;;;;;10229964;28;21392;-64
2023/12/16 18:39:57;;;;;;;19.70;12.53;;;10.10;99.90;;;;;;10230319;28;20770;-67
2023/12/16 18:45:04;;;;;;;21.42;14.18;;;10.10;99.90;;;;;;10232004;28;20230;-65
2023/12/16 18:50:08;;;;;;;22.90;14.70;;;10.10;99.90;;;;;;10232656;28;20226;-66
2023/12/16 18:55:13;;;;;;;18.77;13.15;;;10.00;99.90;;;;;;10232278;28;20280;-65
2023/12/16 19:00:18;;;;;;;19.92;14.65;;;10.00;99.90;;;;;;10237484;28;20260;-65
2023/12/16 19:05:22;;;;;;;21.75;14.88;;;10.00;99.90;;;;;;10232271;28;20238;-67
2023/12/16 19:10:29;;;;;;;19.83;13.65;;;10.00;99.90;;;;;;10236492;28;21589;-67
2023/12/16 19:15:33;;;;;;;17.02;13.07;;;10.00;99.90;;;;;;10231892;28;20233;-65
2023/12/16 19:20:37;;;;;;;22.83;15.80;;;10.00;99.90;;;;;;10234787;28;20296;-65
2023/12/16 19:25:42;;;;;;;17.75;12.77;;;10.00;99.90;;;;;;10237716;28;21523;-67
2023/12/16 19:30:46;;;;;;;17.43;13.30;;;10.00;99.90;;;;;;10233241;28;20257;-67
2023/12/16 19:35:50;;;;;;;17.30;13.63;;;10.00;99.90;;;;;;10235798;28;20648;-67
2023/12/16 19:40:55;;;;;;;15.68;12.45;;;10.00;99.90;;;;;;10232002;28;20202;-67
2023/12/16 19:46:00;;;;;;;15.57;11.20;;;10.00;99.90;;;;;;10230052;28;20244;-65
2023/12/16 19:51:04;;;;;;;15.97;12.30;;;10.00;99.90;;;;;;10232648;28;20225;-65
2023/12/16 19:56:10;;;;;;;14.90;11.30;;;10.00;99.90;;;;;;10229922;28;20213;-66
2023/12/16 20:01:14;;;;;;;14.23;11.80;;;10.00;99.90;;;;;;10233996;28;20202;-65
2023/12/16 20:06:18;;;;;;;13.93;10.65;;;10.00;99.90;;;;;;10233963;28;20286;-65
2023/12/16 20:11:23;;;;;;;15.03;10.63;;;10.00;99.90;;;;;;10230681;28;20234;-65
2023/12/16 20:16:26;;;;;;;14.02;10.00;;;10.00;99.90;;;;;;10231266;28;20229;-64
2023/12/16 20:21:30;;;;;;;13.85;10.15;;;10.00;99.90;;;;;;10229736;28;20245;-66
2023/12/16 20:26:35;;;;;;;12.38;10.00;;;10.00;99.90;;;;;;10231655;28;21459;-68
2023/12/16 20:31:39;;;;;;;13.63;10.48;;;10.00;99.90;;;;;;10227268;28;20234;-67
2023/12/16 20:36:43;;;;;;;12.87;10.03;;;10.00;99.90;;;;;;10230981;28;20284;-67
2023/12/16 20:41:48;;;;;;;12.13;10.63;;;10.00;99.90;;;;;;10233252;28;20229;-65
2023/12/16 20:46:51;;;;;;;14.73;11.50;;;10.00;99.90;;;;;;10231957;28;20210;-66
2023/12/16 20:51:56;;;;;;;13.57;12.10;;;10.00;99.90;;;;;;10233132;28;20678;-65
2023/12/16 20:57:01;;;;;;;18.60;12.32;;;9.90;99.90;;;;;;10233157;28;20289;-66
2023/12/16 21:02:07;;;;;;;13.67;11.20;;;10.00;99.90;;;;;;10229627;28;20225;-65
2023/12/16 21:07:13;;;;;;;13.60;11.93;;;9.90;99.90;;;;;;10245667;28;20210;-64
2023/12/16 21:12:18;;;;;;;14.67;11.53;;;9.90;99.90;;;;;;10224046;28;20241;-65
2023/12/16 21:17:22;;;;;;;17.70;12.00;;;9.90;99.90;;;;;;10235106;28;20272;-66
2023/12/16 21:22:26;;;;;;;13.93;11.27;;;9.90;99.90;;;;;;10242604;28;20312;-66
2023/12/16 21:27:31;;;;;;;14.13;12.63;;;10.00;99.90;;;;;;10249369;28;20210;-66
2023/12/16 21:32:34;;;;;;;15.27;12.03;;;10.00;99.90;;;;;;10247770;28;20237;-69
2023/12/16 21:37:39;;;;;;;16.03;13.07;;;10.00;99.90;;;;;;10241640;28;20209;-69
2023/12/16 21:42:44;;;;;;;14.87;13.07;;;10.00;99.90;;;;;;10243431;28;20300;-71
2023/12/16 21:47:48;;;;;;;15.00;13.45;;;10.00;99.90;;;;;;10256593;28;20248;-68
2023/12/16 21:52:51;;;;;;;17.60;13.53;;;10.00;99.90;;;;;;10332377;28;20225;-64
2023/12/16 21:58:08;;;;;;;15.13;13.53;;;10.00;99.90;;;;;;10320184;28;20201;-63
2023/12/16 22:03:12;;;;;;;16.47;13.87;;;10.00;99.90;;;;;;10281923;28;20240;-67
2023/12/16 22:08:16;;;;;;;16.93;13.73;;;10.00;99.90;;;;;;10336327;28;20229;-69
2023/12/16 22:13:22;;;;;;;16.25;14.30;;;10.00;99.90;;;;;;10345577;28;20225;-68
2023/12/16 22:18:25;;;;;;;16.63;14.67;;;10.00;99.90;;;;;;10343612;28;20265;-68
2023/12/16 22:23:30;;;;;;;17.53;14.30;;;10.00;99.90;;;;;;10343347;28;20276;-68
2023/12/16 22:28:35;;;;;;;19.25;15.27;;;10.00;99.90;;;;;;10329965;28;20252;-68
2023/12/16 22:33:39;;;;;;;19.80;13.77;;;10.00;99.90;;;;;;10334599;28;20608;-66
2023/12/16 22:38:42;;;;;;;19.20;14.35;;;9.90;99.90;;;;;;10297292;28;20260;-67
2023/12/16 22:43:48;;;;;;;17.48;13.50;;;9.90;99.90;;;;;;10334317;28;20268;-68
2023/12/16 22:48:51;;;;;;;15.13;13.03;;;9.90;99.90;;;;;;10333685;28;20720;-67
2023/12/16 22:54:03;;;;;;;15.43;13.45;;;9.90;99.90;;;;;;10332567;28;20217;-68
2023/12/16 22:59:08;;;;;;;20.10;13.17;;;9.90;99.90;;;;;;10333615;28;20254;-68
2023/12/16 23:04:11;;;;;;;18.15;13.38;;;9.90;99.90;;;;;;10333189;28;20288;-66
2023/12/16 23:09:17;;;;;;;14.82;12.80;;;10.00;99.90;;;;;;10332930;28;20201;-68
2023/12/16 23:14:22;;;;;;;15.47;11.40;;;10.00;99.90;;;;;;10333826;28;20230;-68
2023/12/16 23:19:25;;;;;;;17.77;11.80;;;10.00;99.90;;;;;;10333091;28;20206;-68
2023/12/16 23:24:29;;;;;;;14.00;10.75;;;9.90;99.90;;;;;;10325977;28;20229;-67
2023/12/16 23:29:34;;;;;;;15.27;11.18;;;9.90;99.90;;;;;;10310330;28;20272;-67
2023/12/16 23:34:38;;;;;;;18.37;11.47;;;9.90;99.90;;;;;;10312523;28;20635;-67
2023/12/16 23:39:41;;;;;;;17.65;11.68;;;9.90;99.90;;;;;;10331128;28;20201;-68
2023/12/16 23:44:46;;;;;;;14.93;11.60;;;9.90;99.90;;;;;;10247762;28;20299;-68
2023/12/16 23:49:50;;;;;;;17.63;11.60;;;9.90;99.90;;;;;;10331225;28;20225;-68
2023/12/16 23:54:55;;;;;;;14.38;11.50;;;9.90;99.90;;;;;;10327059;28;20226;-69
